Terminal Aerodrome Forecast
Issued by NWS Kansas City/Pleasant Hill, MO

Home | Current Version | Previous Version | Text Only | Print | Product List | Glossary On
Versions: 1 2 3 4 5 6 7 8 9 10 11 12 13 14
000
FTUS43 KEAX 131720
TAFMCI
TAF
KMCI 131720Z 1318/1418 32020G30KT P6SM SKC
     FM132300 33014KT P6SM SKC
     FM140300 35010KT P6SM SCT035
     FM140600 35008KT P6SM BKN020=

USA.gov is the U.S. government's official web portal to all federal, state and local government web resources and services.